Terminal Aerodrome Forecast
Issued by NWS Sterling, VA

Current Version | Previous Version | Text Only | Print | Product List | Glossary On
Versions: 1 2 3 4 5 6 7 8 9 10 11 12 13 14 15 16 17 18 19
000
FTUS41 KLWX 300541
TAFMRB
TAF
KMRB 300541Z 3006/3106 18007KT P6SM OVC050
      TEMPO 3008/3010 21010G20KT 6SM -RA OVC040
     FM301600 28012KT P6SM SCT050
     FM310100 28008KT P6SM SCT050
     FM310300 27007KT P6SM FEW250=

USA.gov is the U.S. government's official web portal to all federal, state and local government web resources and services.